createdAt,value
2019-03-29T00:02:14.538Z,10.40
2019-03-29T00:04:44.255Z,10.40
2019-03-29T00:07:14.002Z,10.40
2019-03-29T00:09:43.862Z,10.40
2019-03-29T00:12:13.607Z,10.40
2019-03-29T00:14:43.356Z,10.40
2019-03-29T00:17:13.118Z,10.30
2019-03-29T00:19:42.845Z,10.40
2019-03-29T00:22:12.554Z,10.30
2019-03-29T00:24:42.287Z,10.30
2019-03-29T00:27:12.013Z,10.30
2019-03-29T00:29:41.883Z,10.30
2019-03-29T00:32:11.607Z,10.30
2019-03-29T00:34:42.043Z,10.30
2019-03-29T00:37:11.998Z,10.30
2019-03-29T00:39:41.728Z,10.30
2019-03-29T00:42:11.454Z,10.30
2019-03-29T00:44:41.182Z,10.30
2019-03-29T00:47:10.974Z,10.30
2019-03-29T00:49:41.012Z,10.30
2019-03-29T00:52:10.726Z,10.30
2019-03-29T00:54:40.492Z,10.30
2019-03-29T00:57:10.230Z,10.30
2019-03-29T00:59:40.193Z,10.30
2019-03-29T01:02:10.471Z,10.30
2019-03-29T01:04:40.207Z,10.30
2019-03-29T01:07:09.926Z,10.20
2019-03-29T01:09:39.694Z,10.20
2019-03-29T01:12:09.455Z,10.20
2019-03-29T01:14:39.222Z,10.20
2019-03-29T01:17:08.975Z,10.20
2019-03-29T01:19:38.728Z,10.20
2019-03-29T01:22:08.507Z,10.20
2019-03-29T01:24:38.320Z,10.20
2019-03-29T01:27:08.163Z,10.20
2019-03-29T01:29:37.924Z,10.20
2019-03-29T01:32:07.668Z,10.10
2019-03-29T01:34:37.445Z,10.20
2019-03-29T01:37:07.271Z,10.10
2019-03-29T01:39:37.028Z,10.10
2019-03-29T01:42:06.825Z,10.10
2019-03-29T01:44:36.567Z,10.10
2019-03-29T01:47:06.307Z,10.10
2019-03-29T01:49:36.031Z,10.10
2019-03-29T01:52:05.805Z,10.10
2019-03-29T01:54:35.543Z,10.10
2019-03-29T01:57:05.287Z,10.10
2019-03-29T01:59:35.043Z,10.10
2019-03-29T02:02:04.804Z,10.10
2019-03-29T02:04:34.992Z,10.10
2019-03-29T02:07:04.996Z,10.10
2019-03-29T02:09:34.763Z,10.10
2019-03-29T02:12:04.775Z,10.10
2019-03-29T02:14:34.503Z,10.10
2019-03-29T02:17:04.272Z,10.10
2019-03-29T02:19:34.044Z,10.00
2019-03-29T02:22:03.794Z,10.00
2019-03-29T02:24:33.515Z,10.00
2019-03-29T02:27:03.254Z,10.00
2019-03-29T02:29:32.995Z,10.00
2019-03-29T02:32:02.789Z,10.00
2019-03-29T02:34:32.560Z,10.00
2019-03-29T02:37:02.712Z,10.00
2019-03-29T02:39:32.558Z,10.00
2019-03-29T02:42:02.284Z,10.00
2019-03-29T02:44:32.004Z,10.00
2019-03-29T02:47:01.727Z,10.00
2019-03-29T02:49:31.492Z,10.00
2019-03-29T02:52:01.260Z,10.00
2019-03-29T02:54:31.036Z,10.00
2019-03-29T02:57:01.152Z,10.00
2019-03-29T02:59:30.881Z,10.00
2019-03-29T03:02:00.626Z,10.00
2019-03-29T03:04:30.372Z,10.00
2019-03-29T03:07:00.233Z,10.00
2019-03-29T03:09:30.031Z,10.00
2019-03-29T03:11:59.811Z,10.00
2019-03-29T03:14:29.555Z,10.00
2019-03-29T03:16:59.418Z,10.00
2019-03-29T03:19:29.139Z,10.00
2019-03-29T03:21:58.911Z,10.00
2019-03-29T03:24:28.632Z,10.00
2019-03-29T03:26:58.463Z,10.00
2019-03-29T03:29:28.200Z,10.00
2019-03-29T03:31:58.084Z,10.00
2019-03-29T03:34:27.801Z,10.00
2019-03-29T03:36:57.571Z,10.00
2019-03-29T03:39:32.022Z,10.00
2019-03-29T03:41:58.744Z,10.00
2019-03-29T03:44:28.491Z,10.00
2019-03-29T03:46:58.368Z,10.00
2019-03-29T03:49:28.109Z,10.00
2019-03-29T03:51:57.927Z,10.00
2019-03-29T03:54:27.659Z,10.00
2019-03-29T03:56:58.024Z,10.00
2019-03-29T03:59:28.892Z,10.00
2019-03-29T04:01:58.636Z,10.00
2019-03-29T04:04:28.408Z,10.00
2019-03-29T04:06:58.140Z,10.00
2019-03-29T04:09:27.907Z,10.10
2019-03-29T04:11:57.643Z,10.10
2019-03-29T04:14:27.419Z,10.10
2019-03-29T04:16:57.152Z,10.10
2019-03-29T04:19:26.922Z,10.10
2019-03-29T04:21:56.732Z,10.10
2019-03-29T04:24:26.490Z,10.10
2019-03-29T04:26:56.208Z,10.10
2019-03-29T04:29:26.055Z,10.10
2019-03-29T04:31:55.880Z,10.10
2019-03-29T04:34:25.584Z,10.10
2019-03-29T04:36:55.346Z,10.10
2019-03-29T04:39:25.108Z,10.10
2019-03-29T04:41:54.859Z,10.10
2019-03-29T04:44:24.621Z,10.10
2019-03-29T04:46:54.341Z,10.10
2019-03-29T04:49:24.107Z,10.10
2019-03-29T04:51:53.882Z,10.10
2019-03-29T04:54:23.656Z,10.10
2019-03-29T04:56:53.387Z,10.10
2019-03-29T04:59:23.167Z,10.10
2019-03-29T05:01:52.927Z,10.10
2019-03-29T05:04:22.774Z,10.10
2019-03-29T05:06:52.447Z,10.10
2019-03-29T05:09:22.184Z,10.10
2019-03-29T05:11:51.943Z,10.10
2019-03-29T05:14:21.676Z,10.10
2019-03-29T05:16:51.509Z,10.10
2019-03-29T05:19:21.260Z,10.20
2019-03-29T05:21:50.999Z,10.20
2019-03-29T05:24:20.754Z,10.20
2019-03-29T05:26:50.488Z,10.20
2019-03-29T05:29:20.263Z,10.20
2019-03-29T05:31:50.027Z,10.20
2019-03-29T05:34:19.870Z,10.20
2019-03-29T05:36:49.636Z,10.20
2019-03-29T05:39:19.378Z,10.20
2019-03-29T05:41:49.128Z,10.20
2019-03-29T05:44:18.843Z,10.20
2019-03-29T05:46:48.606Z,10.20
2019-03-29T05:49:18.388Z,10.20
2019-03-29T05:51:48.170Z,10.20
2019-03-29T05:54:17.935Z,10.20
2019-03-29T05:56:47.783Z,10.20
2019-03-29T05:59:17.539Z,10.10
2019-03-29T06:01:48.159Z,10.10
2019-03-29T06:04:18.880Z,10.00
2019-03-29T06:06:48.627Z,10.00
2019-03-29T06:09:18.424Z,10.00
2019-03-29T06:11:48.369Z,10.00
2019-03-29T06:14:18.148Z,10.00
2019-03-29T06:16:47.912Z,10.00
2019-03-29T06:19:17.687Z,10.00
2019-03-29T06:21:47.468Z,10.00
2019-03-29T06:24:17.238Z,10.00
2019-03-29T06:26:47.079Z,10.10
2019-03-29T06:29:16.997Z,10.10
2019-03-29T06:31:46.739Z,10.10
2019-03-29T06:34:16.507Z,10.20
2019-03-29T06:36:47.456Z,10.30
2019-03-29T06:39:21.181Z,10.40
2019-03-29T06:41:49.775Z,10.40
2019-03-29T06:44:19.514Z,10.50
2019-03-29T06:46:49.292Z,10.50
2019-03-29T06:49:19.012Z,10.50
2019-03-29T06:51:48.832Z,10.60
2019-03-29T06:54:18.655Z,10.70
2019-03-29T06:56:48.471Z,10.80
2019-03-29T06:59:18.244Z,10.80
2019-03-29T07:01:48.107Z,10.90
2019-03-29T07:04:18.184Z,10.90
2019-03-29T07:06:48.010Z,11.00
2019-03-29T07:09:17.756Z,11.10
2019-03-29T07:11:47.553Z,11.10
2019-03-29T07:14:17.387Z,11.10
2019-03-29T07:16:47.172Z,11.20
2019-03-29T07:19:16.883Z,11.30
2019-03-29T07:21:46.922Z,11.40
2019-03-29T07:24:16.653Z,11.80
2019-03-29T07:26:46.406Z,12.20
2019-03-29T07:29:16.197Z,12.80
2019-03-29T07:31:45.940Z,13.40
2019-03-29T07:34:15.679Z,14.00
2019-03-29T07:36:45.563Z,14.70
2019-03-29T07:39:15.520Z,15.40
2019-03-29T07:41:45.338Z,16.00
2019-03-29T07:44:15.167Z,16.40
2019-03-29T07:46:44.930Z,16.90
2019-03-29T07:49:14.689Z,17.10
2019-03-29T07:51:44.465Z,17.00
2019-03-29T07:54:14.333Z,16.90
2019-03-29T07:56:44.084Z,16.90
2019-03-29T07:59:14.659Z,16.60
2019-03-29T08:01:44.591Z,16.50
2019-03-29T08:04:14.540Z,16.70
2019-03-29T08:06:46.548Z,17.20
2019-03-29T08:09:22.218Z,17.60
2019-03-29T08:11:47.192Z,17.60
2019-03-29T08:14:16.980Z,17.80
2019-03-29T08:16:46.711Z,18.00
2019-03-29T08:19:16.452Z,18.10
2019-03-29T08:21:46.247Z,17.70
2019-03-29T08:24:16.016Z,17.70
2019-03-29T08:26:45.788Z,17.90
2019-03-29T08:29:15.532Z,18.20
2019-03-29T08:31:45.309Z,18.50
2019-03-29T08:34:15.051Z,18.60
2019-03-29T08:36:44.930Z,18.20
2019-03-29T08:39:33.519Z,18.20
2019-03-29T08:42:03.300Z,18.30
2019-03-29T08:44:33.035Z,18.30
2019-03-29T08:47:02.816Z,18.50
2019-03-29T08:49:32.580Z,18.40
2019-03-29T08:52:02.403Z,18.10
2019-03-29T08:54:32.153Z,17.90
2019-03-29T08:57:01.934Z,17.70
2019-03-29T08:59:32.640Z,17.60
2019-03-29T09:02:02.395Z,17.50
2019-03-29T09:04:32.147Z,17.20
2019-03-29T09:07:01.932Z,16.80
2019-03-29T09:09:31.667Z,16.20
2019-03-29T09:12:13.859Z,16.10
2019-03-29T09:14:32.948Z,16.50
2019-03-29T09:17:02.702Z,16.20
2019-03-29T09:19:32.467Z,16.10
2019-03-29T09:22:02.207Z,16.90
2019-03-29T09:24:32.057Z,17.10
2019-03-29T09:27:01.895Z,16.70
2019-03-29T09:29:31.684Z,16.30
2019-03-29T09:32:01.560Z,16.10
2019-03-29T09:34:31.329Z,16.60
2019-03-29T09:37:01.309Z,17.30
2019-03-29T09:39:31.064Z,18.00
2019-03-29T09:42:00.828Z,18.60
2019-03-29T09:44:30.570Z,19.10
2019-03-29T09:47:00.346Z,19.40
2019-03-29T09:49:30.204Z,19.40
2019-03-29T09:52:00.004Z,18.70
2019-03-29T09:54:29.739Z,17.80
2019-03-29T09:56:59.522Z,17.70
2019-03-29T09:59:30.426Z,17.70
2019-03-29T10:02:01.358Z,18.00
2019-03-29T10:04:32.262Z,17.60
2019-03-29T10:07:02.076Z,17.50
2019-03-29T10:09:32.946Z,17.70
2019-03-29T10:12:03.866Z,17.80
2019-03-29T10:14:33.790Z,18.00
2019-03-29T10:17:03.595Z,18.00
2019-03-29T10:19:33.319Z,18.00
2019-03-29T10:22:03.083Z,17.80
2019-03-29T10:24:32.817Z,17.90
2019-03-29T10:27:02.614Z,18.00
2019-03-29T10:29:32.320Z,18.20
2019-03-29T10:32:05.479Z,18.20
2019-03-29T10:34:33.535Z,18.30
2019-03-29T10:37:03.316Z,18.70
2019-03-29T10:39:36.096Z,19.50
2019-03-29T10:42:05.851Z,20.10
2019-03-29T10:44:35.817Z,20.50
2019-03-29T10:47:05.559Z,20.70
2019-03-29T10:49:35.682Z,21.00
2019-03-29T10:52:05.982Z,21.20
2019-03-29T10:54:35.700Z,20.90
2019-03-29T10:57:05.553Z,20.90
2019-03-29T10:59:35.279Z,20.60
2019-03-29T11:02:05.705Z,20.30
2019-03-29T11:04:35.452Z,20.30
2019-03-29T11:07:05.231Z,20.60
2019-03-29T11:09:36.999Z,21.00
2019-03-29T11:12:06.611Z,21.20
2019-03-29T11:14:36.351Z,21.00
2019-03-29T11:17:06.103Z,20.50
2019-03-29T11:19:35.912Z,20.30
2019-03-29T11:22:05.756Z,20.50
2019-03-29T11:24:35.512Z,20.90
2019-03-29T11:27:05.275Z,21.00
2019-03-29T11:29:35.016Z,21.20
2019-03-29T11:32:05.355Z,21.20
2019-03-29T11:34:35.130Z,21.20
2019-03-29T11:37:04.811Z,21.40
2019-03-29T11:39:34.553Z,21.60
2019-03-29T11:42:04.318Z,21.70
2019-03-29T11:44:34.075Z,21.70
2019-03-29T11:47:04.935Z,21.20
2019-03-29T11:49:34.715Z,20.80
2019-03-29T11:52:04.502Z,20.70
2019-03-29T11:54:34.265Z,21.20
2019-03-29T11:57:04.018Z,21.50
2019-03-29T11:59:33.899Z,21.60
2019-03-29T12:02:03.709Z,21.70
2019-03-29T12:04:33.476Z,21.60
2019-03-29T12:07:03.641Z,21.50
2019-03-29T12:09:33.575Z,21.60
2019-03-29T12:12:03.327Z,21.50
2019-03-29T12:14:33.092Z,21.30
2019-03-29T12:17:02.852Z,20.90
2019-03-29T12:19:32.660Z,20.50
2019-03-29T12:22:02.505Z,20.30
2019-03-29T12:24:32.248Z,20.10
2019-03-29T12:27:02.406Z,19.90
2019-03-29T12:29:32.154Z,19.80
2019-03-29T12:32:02.023Z,20.00
2019-03-29T12:34:31.880Z,20.30
2019-03-29T12:37:01.866Z,20.70
2019-03-29T12:39:31.590Z,21.10
2019-03-29T12:42:02.449Z,21.60
2019-03-29T12:44:32.195Z,21.60
2019-03-29T12:47:01.971Z,21.40
2019-03-29T12:49:31.700Z,20.90
2019-03-29T12:52:01.670Z,20.90
2019-03-29T12:54:31.481Z,21.20
2019-03-29T12:57:01.512Z,21.30
2019-03-29T12:59:32.979Z,21.30
2019-03-29T13:02:03.728Z,21.70
2019-03-29T13:04:33.509Z,22.20
2019-03-29T13:07:03.319Z,22.60
2019-03-29T13:09:33.083Z,23.10
2019-03-29T13:12:02.843Z,23.50
2019-03-29T13:14:32.894Z,23.80
2019-03-29T13:17:03.654Z,23.60
2019-03-29T13:19:33.633Z,23.60
2019-03-29T13:22:05.470Z,23.80
2019-03-29T13:24:35.767Z,23.90
2019-03-29T13:27:05.687Z,23.70
2019-03-29T13:29:36.095Z,23.80
2019-03-29T13:32:06.427Z,24.10
2019-03-29T13:34:37.383Z,24.40
2019-03-29T13:37:07.579Z,24.50
2019-03-29T13:39:37.833Z,24.70
2019-03-29T13:42:07.875Z,24.80
2019-03-29T13:44:38.113Z,24.80
2019-03-29T13:47:08.211Z,24.70
2019-03-29T13:49:38.449Z,24.80
2019-03-29T13:52:08.409Z,25.10
2019-03-29T13:54:38.439Z,25.30
2019-03-29T13:57:08.313Z,25.50
2019-03-29T13:59:38.044Z,25.70
2019-03-29T14:02:07.843Z,25.60
2019-03-29T14:04:37.606Z,25.40
2019-03-29T14:07:07.423Z,25.30
2019-03-29T14:09:37.264Z,25.00
2019-03-29T14:12:07.057Z,24.80
2019-03-29T14:14:38.527Z,24.90
2019-03-29T14:17:08.443Z,25.10
2019-03-29T14:19:38.344Z,25.10
2019-03-29T14:22:08.220Z,24.80
2019-03-29T14:24:38.195Z,24.20
2019-03-29T14:27:07.981Z,23.50
2019-03-29T14:29:38.831Z,23.00
2019-03-29T14:32:08.599Z,22.60
2019-03-29T14:34:38.355Z,22.30
2019-03-29T14:37:08.137Z,22.20
2019-03-29T14:39:37.924Z,22.10
2019-03-29T14:42:07.792Z,22.00
2019-03-29T14:44:51.406Z,22.00
2019-03-29T14:47:09.088Z,22.00
2019-03-29T14:49:38.875Z,22.10
2019-03-29T14:52:08.695Z,22.20
2019-03-29T14:54:38.507Z,22.20
2019-03-29T14:57:08.347Z,22.30
2019-03-29T14:59:38.196Z,22.50
2019-03-29T15:02:07.934Z,22.60
2019-03-29T15:04:37.706Z,22.80
2019-03-29T15:07:07.565Z,23.10
2019-03-29T15:09:37.408Z,23.40
2019-03-29T15:12:07.373Z,23.80
2019-03-29T15:14:37.143Z,24.00
2019-03-29T15:17:06.920Z,24.00
2019-03-29T15:19:36.712Z,24.00
2019-03-29T15:22:06.470Z,23.70
2019-03-29T15:24:36.251Z,23.50
2019-03-29T15:27:06.035Z,23.10
2019-03-29T15:29:35.787Z,22.70
2019-03-29T15:32:05.552Z,22.40
2019-03-29T15:34:35.314Z,22.30
2019-03-29T15:37:05.076Z,22.30
2019-03-29T15:39:34.823Z,22.30
2019-03-29T15:42:04.594Z,22.20
2019-03-29T15:44:34.347Z,22.00
2019-03-29T15:47:04.109Z,21.90
2019-03-29T15:49:33.996Z,21.70
2019-03-29T15:52:03.798Z,21.40
2019-03-29T15:54:33.577Z,21.10
2019-03-29T15:57:03.359Z,20.80
2019-03-29T15:59:33.132Z,20.50
2019-03-29T16:02:02.886Z,20.20
2019-03-29T16:04:33.351Z,20.00
2019-03-29T16:07:03.981Z,19.80
2019-03-29T16:09:34.725Z,19.60
2019-03-29T16:12:04.511Z,19.40
2019-03-29T16:14:34.256Z,19.10
2019-03-29T16:17:04.021Z,18.90
2019-03-29T16:19:33.747Z,18.70
2019-03-29T16:22:06.064Z,18.40
2019-03-29T16:24:34.908Z,18.30
2019-03-29T16:27:04.668Z,18.10
2019-03-29T16:29:34.418Z,18.00
2019-03-29T16:32:04.212Z,17.80
2019-03-29T16:34:33.979Z,17.70
2019-03-29T16:37:03.734Z,17.60
2019-03-29T16:39:33.480Z,17.50
2019-03-29T16:42:03.248Z,17.30
2019-03-29T16:44:32.991Z,17.20
2019-03-29T16:47:02.762Z,17.10
2019-03-29T16:49:32.504Z,17.10
2019-03-29T16:52:02.268Z,17.00
2019-03-29T16:54:32.042Z,16.90
2019-03-29T16:57:01.867Z,16.80
2019-03-29T16:59:31.511Z,16.80
2019-03-29T17:02:01.297Z,16.70
2019-03-29T17:04:31.052Z,16.70
2019-03-29T17:07:00.823Z,16.60
2019-03-29T17:09:30.583Z,16.50
2019-03-29T17:12:00.342Z,16.40
2019-03-29T17:14:30.035Z,16.40
2019-03-29T17:16:59.832Z,16.30
2019-03-29T17:19:29.584Z,16.20
2019-03-29T17:21:59.383Z,16.20
2019-03-29T17:24:29.120Z,16.10
2019-03-29T17:26:58.962Z,16.10
2019-03-29T17:29:28.696Z,16.00
2019-03-29T17:31:58.544Z,15.90
2019-03-29T17:34:28.287Z,15.80
2019-03-29T17:36:58.047Z,15.80
2019-03-29T17:39:27.799Z,15.70
2019-03-29T17:41:58.966Z,15.70
2019-03-29T17:44:28.781Z,15.60
2019-03-29T17:46:58.542Z,15.50
2019-03-29T17:49:28.957Z,15.50
2019-03-29T17:51:58.693Z,15.40
2019-03-29T17:54:28.447Z,15.30
2019-03-29T17:56:58.276Z,15.30
2019-03-29T17:59:28.030Z,15.20
2019-03-29T18:02:08.786Z,15.10
2019-03-29T18:04:29.214Z,15.10
2019-03-29T18:06:59.035Z,15.00
2019-03-29T18:09:28.780Z,14.90
2019-03-29T18:11:58.563Z,14.80
2019-03-29T18:14:28.504Z,14.70
2019-03-29T18:16:58.258Z,14.60
2019-03-29T18:19:28.002Z,14.60
2019-03-29T18:21:57.771Z,14.50
2019-03-29T18:24:27.492Z,14.50
2019-03-29T18:26:57.255Z,14.40
2019-03-29T18:29:27.025Z,14.40
2019-03-29T18:31:56.793Z,14.30
2019-03-29T18:34:26.542Z,14.30
2019-03-29T18:36:58.055Z,14.20
2019-03-29T18:39:27.840Z,14.20
2019-03-29T18:41:57.599Z,14.10
2019-03-29T18:44:27.384Z,14.00
2019-03-29T18:46:57.128Z,14.00
2019-03-29T18:49:26.937Z,13.90
2019-03-29T18:51:56.715Z,13.80
2019-03-29T18:54:26.527Z,13.70
2019-03-29T18:56:56.284Z,13.40
2019-03-29T18:59:26.011Z,13.10
2019-03-29T19:01:55.832Z,12.90
2019-03-29T19:04:25.599Z,12.80
2019-03-29T19:06:55.376Z,12.70
2019-03-29T19:09:25.209Z,12.60
2019-03-29T19:11:55.097Z,12.40
2019-03-29T19:14:24.951Z,12.40
2019-03-29T19:16:59.196Z,12.30
2019-03-29T19:19:26.099Z,12.20
2019-03-29T19:21:55.864Z,12.10
2019-03-29T19:24:25.657Z,12.10
2019-03-29T19:26:55.411Z,12.10
2019-03-29T19:29:25.389Z,12.00
2019-03-29T19:31:56.277Z,12.00
2019-03-29T19:34:26.127Z,11.90
2019-03-29T19:36:55.936Z,11.90
2019-03-29T19:39:25.801Z,11.90
2019-03-29T19:41:56.583Z,11.80
2019-03-29T19:44:26.475Z,11.80
2019-03-29T19:46:56.749Z,11.70
2019-03-29T19:49:27.073Z,11.70
2019-03-29T19:51:56.790Z,11.70
2019-03-29T19:54:26.564Z,11.70
2019-03-29T19:56:56.376Z,11.60
2019-03-29T19:59:26.279Z,11.60
2019-03-29T20:01:56.099Z,11.50
2019-03-29T20:04:25.803Z,11.50
2019-03-29T20:06:55.848Z,11.40
2019-03-29T20:09:25.624Z,11.40
2019-03-29T20:11:55.496Z,11.30
2019-03-29T20:14:25.307Z,11.30
2019-03-29T20:16:55.385Z,11.30
2019-03-29T20:19:25.305Z,11.30
2019-03-29T20:21:55.407Z,11.30
2019-03-29T20:24:25.239Z,11.20
2019-03-29T20:26:54.985Z,11.20
2019-03-29T20:29:24.747Z,11.10
2019-03-29T20:31:54.592Z,11.00
2019-03-29T20:34:24.433Z,10.90
2019-03-29T20:36:54.172Z,10.90
2019-03-29T20:39:24.184Z,10.80
2019-03-29T20:41:54.095Z,10.70
2019-03-29T20:44:23.938Z,10.70
2019-03-29T20:46:53.827Z,10.70
2019-03-29T20:49:23.612Z,10.60
2019-03-29T20:51:53.530Z,10.50
2019-03-29T20:54:23.288Z,10.50
2019-03-29T20:56:53.061Z,10.40
2019-03-29T20:59:22.800Z,10.30
2019-03-29T21:01:52.998Z,10.30
2019-03-29T21:04:22.840Z,10.20
2019-03-29T21:06:52.836Z,10.20
2019-03-29T21:09:22.783Z,10.20
2019-03-29T21:11:52.853Z,10.20
2019-03-29T21:14:22.716Z,10.10
2019-03-29T21:16:52.449Z,10.10
2019-03-29T21:19:22.227Z,10.10
2019-03-29T21:21:51.988Z,10.10
2019-03-29T21:24:21.751Z,10.00
2019-03-29T21:26:51.491Z,10.10
2019-03-29T21:29:21.274Z,10.00
2019-03-29T21:31:51.016Z,10.00
2019-03-29T21:34:20.823Z,10.10
2019-03-29T21:36:50.581Z,10.00
2019-03-29T21:39:20.343Z,10.00
2019-03-29T21:41:50.124Z,9.90
2019-03-29T21:44:19.944Z,9.90
2019-03-29T21:46:49.716Z,9.90
2019-03-29T21:49:19.488Z,9.80
2019-03-29T21:51:49.338Z,9.80
2019-03-29T21:54:19.093Z,9.70
2019-03-29T21:56:48.862Z,9.60
2019-03-29T21:59:18.599Z,9.60
2019-03-29T22:01:48.376Z,9.60
2019-03-29T22:04:18.137Z,9.50
2019-03-29T22:06:48.258Z,9.50
2019-03-29T22:09:18.156Z,9.50
2019-03-29T22:11:47.943Z,9.50
2019-03-29T22:14:17.675Z,9.40
2019-03-29T22:16:47.415Z,9.50
2019-03-29T22:19:17.185Z,9.40
2019-03-29T22:21:47.210Z,9.40
2019-03-29T22:24:16.975Z,9.40
2019-03-29T22:26:47.175Z,9.30
2019-03-29T22:29:17.359Z,9.20
2019-03-29T22:31:47.116Z,9.10
2019-03-29T22:34:16.956Z,9.00
2019-03-29T22:36:46.696Z,8.90
2019-03-29T22:39:16.588Z,8.90
2019-03-29T22:41:46.345Z,8.80
2019-03-29T22:44:16.107Z,8.70
2019-03-29T22:46:45.937Z,8.70
2019-03-29T22:49:15.732Z,8.60
2019-03-29T22:51:45.586Z,8.60
2019-03-29T22:54:15.316Z,8.50
2019-03-29T22:56:45.097Z,8.40
2019-03-29T22:59:14.852Z,8.40
2019-03-29T23:01:46.758Z,8.40
2019-03-29T23:04:16.512Z,8.40
2019-03-29T23:06:46.367Z,8.40
2019-03-29T23:09:16.385Z,8.40
2019-03-29T23:11:46.135Z,8.30
2019-03-29T23:14:15.971Z,8.30
2019-03-29T23:16:45.708Z,8.30
2019-03-29T23:19:15.486Z,8.20
2019-03-29T23:21:45.231Z,8.20
2019-03-29T23:24:15.023Z,8.20
2019-03-29T23:26:44.853Z,8.20
2019-03-29T23:29:14.605Z,8.20
2019-03-29T23:31:44.475Z,8.20
2019-03-29T23:34:14.225Z,8.10
2019-03-29T23:36:43.996Z,8.10
2019-03-29T23:39:13.742Z,8.10
2019-03-29T23:41:43.520Z,8.10
2019-03-29T23:44:13.371Z,8.10
2019-03-29T23:46:43.120Z,8.10
2019-03-29T23:49:20.968Z,8.00
2019-03-29T23:51:44.404Z,8.00
2019-03-29T23:54:14.183Z,8.00
2019-03-29T23:56:43.943Z,8.00
2019-03-29T23:59:13.715Z,7.90
